Time;durP1;ratioP1;P1;durP2;ratioP2;P2;SDS_P1;SDS_P2;PMS_P1;PMS_P2;Temp;Humidity;BMP_temperature;BMP_pressure;BME280_temperature;BME280_humidity;BME280_pressure;Samples;Min_cycle;Max_cycle;Signal;HPM_P1;HPM_P2
2022/11/03 00:00:27;;;;;;;8.90;7.97;;;22.40;99.90;;;;;;6228479;28;89088;-67
2022/11/03 00:03:29;;;;;;;8.65;7.78;;;22.30;99.90;;;;;;6232104;28;89110;-67
2022/11/03 00:06:32;;;;;;;8.88;8.00;;;22.30;99.90;;;;;;6229974;28;89372;-67
2022/11/03 00:09:34;;;;;;;8.90;8.10;;;22.30;99.90;;;;;;6219649;28;88387;-67
2022/11/03 00:12:36;;;;;;;9.00;8.10;;;22.30;99.90;;;;;;6232616;28;89109;-67
2022/11/03 00:15:48;;;;;;;9.68;8.38;;;22.30;99.90;;;;;;6231986;28;89353;-67
2022/11/03 00:18:51;;;;;;;8.70;7.82;;;22.30;99.90;;;;;;6230714;28;91870;-67
2022/11/03 00:21:53;;;;;;;8.40;7.60;;;22.30;99.90;;;;;;6227412;28;90432;-67
2022/11/03 00:24:56;;;;;;;8.63;7.75;;;22.30;99.90;;;;;;6212202;28;87998;-67
2022/11/03 00:27:58;;;;;;;8.50;7.70;;;22.30;99.90;;;;;;6211770;28;89087;-67
2022/11/03 00:31:05;;;;;;;8.38;7.57;;;22.30;99.90;;;;;;6230025;28;89254;-67
2022/11/03 00:34:08;;;;;;;9.60;7.68;;;22.30;99.90;;;;;;6228255;28;89573;-67
2022/11/03 00:37:10;;;;;;;8.70;7.80;;;22.30;99.90;;;;;;6218308;28;89094;-66
2022/11/03 00:40:12;;;;;;;8.43;7.63;;;22.30;99.90;;;;;;6220991;28;88752;-67
2022/11/03 00:43:14;;;;;;;8.00;7.20;;;22.20;99.90;;;;;;6229233;28;89101;-67
2022/11/03 00:46:19;;;;;;;8.35;7.55;;;22.30;99.90;;;;;;6229913;28;89239;-67
2022/11/03 00:49:21;;;;;;;8.50;7.70;;;22.30;99.90;;;;;;6210468;28;90110;-67
2022/11/03 00:52:23;;;;;;;8.18;7.38;;;22.20;99.90;;;;;;6225509;28;89113;-67
2022/11/03 00:55:25;;;;;;;8.98;8.07;;;22.20;99.90;;;;;;6225936;28;89222;-67
2022/11/03 00:58:27;;;;;;;8.73;7.82;;;22.20;99.90;;;;;;6219438;28;89336;-67
2022/11/03 01:01:33;;;;;;;10.93;8.63;;;22.20;99.90;;;;;;6217589;28;89140;-67
2022/11/03 01:07:55;;;;;;;8.18;7.38;;;22.20;99.90;;;;;;6231621;28;87337;-67
2022/11/03 01:14:24;;;;;;;8.20;7.40;;;22.20;99.90;;;;;;6223709;28;87249;-67
2022/11/03 01:17:28;;;;;;;8.30;7.50;;;22.20;99.90;;;;;;6215294;28;89499;-67
2022/11/03 01:20:30;;;;;;;8.10;7.30;;;22.20;99.90;;;;;;6209577;28;90192;-67
2022/11/03 01:23:34;;;;;;;8.40;7.57;;;22.20;99.90;;;;;;6221468;28;89169;-66
2022/11/03 01:26:36;;;;;;;9.00;8.10;;;22.20;99.90;;;;;;6226309;28;89364;-66
2022/11/03 01:29:38;;;;;;;9.23;7.93;;;22.20;99.90;;;;;;6228509;28;89268;-66
2022/11/03 01:32:42;;;;;;;8.38;7.57;;;22.20;99.90;;;;;;6209774;28;89552;-67
2022/11/03 01:35:44;;;;;;;8.35;7.55;;;22.20;99.90;;;;;;6210681;28;89196;-66
2022/11/03 01:38:46;;;;;;;8.38;7.50;;;22.20;99.90;;;;;;6223647;28;89332;-67
2022/11/03 01:41:50;;;;;;;8.10;7.30;;;22.10;99.90;;;;;;6231166;28;88671;-67
2022/11/03 01:44:52;;;;;;;7.90;7.10;;;22.20;99.90;;;;;;6231336;28;89700;-67
2022/11/03 01:47:55;;;;;;;8.02;7.22;;;22.20;99.90;;;;;;6221623;28;89104;-66
2022/11/03 01:50:57;;;;;;;7.63;6.93;;;22.10;99.90;;;;;;6216742;28;90368;-66
2022/11/03 01:54:04;;;;;;;7.88;7.10;;;22.10;99.90;;;;;;6229455;28;89234;-67
2022/11/03 01:57:11;;;;;;;8.30;7.43;;;22.10;99.90;;;;;;6219553;28;89149;-66
2022/11/03 02:00:14;;;;;;;7.70;7.00;;;22.10;99.90;;;;;;6230395;28;89112;-66
2022/11/03 02:03:18;;;;;;;7.82;7.05;;;22.10;99.90;;;;;;6219404;28;90364;-66
2022/11/03 02:06:23;;;;;;;7.30;6.60;;;22.10;99.90;;;;;;6214131;28;88456;-66
2022/11/03 02:09:26;;;;;;;7.53;6.82;;;22.10;99.90;;;;;;6229772;28;89200;-66
2022/11/03 02:12:29;;;;;;;7.72;7.00;;;22.10;99.90;;;;;;6230497;28;88232;-67
2022/11/03 02:15:33;;;;;;;7.45;6.75;;;22.10;99.90;;;;;;6216612;28;89324;-66
2022/11/03 02:18:37;;;;;;;7.57;6.88;;;22.10;99.90;;;;;;6223652;28;89623;-66
2022/11/03 02:21:48;;;;;;;7.35;6.63;;;22.10;99.90;;;;;;6229232;28;90323;-66
2022/11/03 02:24:52;;;;;;;7.63;6.82;;;22.10;99.90;;;;;;6228096;28;89339;-67
2022/11/03 02:27:56;;;;;;;7.57;6.88;;;22.10;99.90;;;;;;6225980;28;89069;-66
2022/11/03 02:31:09;;;;;;;8.23;7.32;;;22.10;99.90;;;;;;6208648;28;89209;-66
2022/11/03 02:34:17;;;;;;;8.15;6.53;;;22.10;99.90;;;;;;6208456;28;88051;-67
2022/11/03 02:37:23;;;;;;;7.60;6.80;;;22.10;99.90;;;;;;6216751;28;89158;-66
2022/11/03 02:40:30;;;;;;;7.35;6.65;;;22.10;99.90;;;;;;6207869;28;89320;-66
2022/11/03 02:43:34;;;;;;;7.38;6.68;;;22.10;99.90;;;;;;6217486;28;87888;-66
2022/11/03 02:46:37;;;;;;;7.70;7.00;;;22.10;99.90;;;;;;6229662;28;89373;-66
2022/11/03 02:49:40;;;;;;;6.97;6.13;;;22.10;99.90;;;;;;6217823;28;89211;-67
2022/11/03 02:52:44;;;;;;;8.23;7.13;;;22.10;99.90;;;;;;6223593;28;89253;-66
2022/11/03 02:55:53;;;;;;;6.70;6.07;;;22.10;99.90;;;;;;6229247;28;89025;-66
2022/11/03 02:59:02;;;;;;;6.95;6.25;;;22.00;99.90;;;;;;6225153;28;89254;-67
2022/11/03 03:02:09;;;;;;;6.82;6.13;;;22.00;99.90;;;;;;6214765;28;89116;-66
2022/11/03 03:05:14;;;;;;;6.95;6.25;;;22.00;99.90;;;;;;6229800;28;88149;-67
2022/11/03 03:08:16;;;;;;;8.45;7.00;;;22.10;99.90;;;;;;6223107;28;89600;-67
2022/11/03 03:11:35;;;;;;;6.70;6.00;;;22.00;99.90;;;;;;6221451;28;89152;-67
2022/11/03 03:14:40;;;;;;;7.35;6.63;;;22.10;99.90;;;;;;6223814;28;88638;-67
2022/11/03 03:17:45;;;;;;;6.45;5.85;;;22.00;99.90;;;;;;6222598;28;88784;-66
2022/11/03 03:20:55;;;;;;;7.07;6.38;;;22.00;99.90;;;;;;6231945;28;88036;-67
2022/11/03 03:24:01;;;;;;;6.72;6.03;;;22.00;99.90;;;;;;6222305;28;90089;-66
2022/11/03 03:27:08;;;;;;;6.22;5.63;;;22.00;99.90;;;;;;6227973;28;89197;-67
2022/11/03 03:30:13;;;;;;;6.32;5.72;;;22.00;99.90;;;;;;6227290;28;89178;-66
2022/11/03 03:33:17;;;;;;;6.57;5.90;;;22.00;99.90;;;;;;6213798;28;89145;-67
2022/11/03 03:36:22;;;;;;;6.75;6.05;;;22.00;99.90;;;;;;6229826;28;92985;-66
2022/11/03 03:39:27;;;;;;;6.72;5.97;;;22.00;99.90;;;;;;6232510;28;89116;-66
2022/11/03 03:42:33;;;;;;;6.43;5.60;;;22.00;99.90;;;;;;6231389;28;89503;-67
2022/11/03 03:45:38;;;;;;;6.40;5.80;;;22.00;99.90;;;;;;6229348;28;88429;-66
2022/11/03 03:48:40;;;;;;;6.03;5.43;;;22.00;99.90;;;;;;6228842;28;89184;-67
2022/11/03 03:51:43;;;;;;;6.30;5.70;;;22.00;99.90;;;;;;6219927;28;89406;-67
2022/11/03 03:54:45;;;;;;;6.03;5.43;;;22.00;99.90;;;;;;6226026;28;90178;-67
2022/11/03 03:57:47;;;;;;;7.22;6.18;;;22.00;99.90;;;;;;6231406;28;88889;-67
2022/11/03 04:00:51;;;;;;;6.00;5.40;;;22.00;99.90;;;;;;6232401;28;89128;-66
2022/11/03 04:03:53;;;;;;;6.47;5.88;;;22.00;99.90;;;;;;6222382;28;91050;-67
2022/11/03 04:10:10;;;;;;;5.45;4.95;;;22.00;99.90;;;;;;6218464;28;88665;-67
2022/11/03 04:23:12;;;;;;;5.93;5.30;;;22.00;99.90;;;;;;6231557;28;89803;-66
2022/11/03 04:26:16;;;;;;;5.82;5.22;;;22.00;99.90;;;;;;6217119;28;89021;-66
2022/11/03 04:29:18;;;;;;;6.43;5.30;;;21.90;99.90;;;;;;6229548;28;88966;-66
2022/11/03 04:32:21;;;;;;;5.60;5.10;;;22.00;99.90;;;;;;6219390;28;89252;-67
2022/11/03 04:35:25;;;;;;;7.32;5.90;;;22.00;99.90;;;;;;6217596;28;89227;-67
2022/11/03 04:38:29;;;;;;;5.43;4.93;;;21.90;99.90;;;;;;6219577;28;88002;-66
2022/11/03 04:41:33;;;;;;;5.30;4.80;;;21.90;99.90;;;;;;6218887;28;89016;-66
2022/11/03 04:44:35;;;;;;;5.22;4.72;;;22.00;99.90;;;;;;6231277;28;88332;-66
2022/11/03 04:47:39;;;;;;;4.88;4.47;;;22.00;99.90;;;;;;6219378;28;88996;-67
2022/11/03 04:50:41;;;;;;;5.20;4.65;;;22.00;99.90;;;;;;6231473;28;89221;-67
2022/11/03 04:53:49;;;;;;;5.38;4.88;;;22.00;99.90;;;;;;6231257;28;89436;-66
2022/11/03 04:56:51;;;;;;;6.15;4.75;;;22.00;99.90;;;;;;6222921;28;88890;-67
2022/11/03 04:59:53;;;;;;;5.57;4.65;;;22.00;99.90;;;;;;6229153;28;89094;-67
2022/11/03 05:02:56;;;;;;;4.90;4.45;;;22.00;99.90;;;;;;6231245;28;89387;-66
2022/11/03 05:06:01;;;;;;;5.05;4.55;;;22.00;99.90;;;;;;6222330;28;89259;-67
2022/11/03 05:09:14;;;;;;;5.35;4.80;;;22.00;99.90;;;;;;6213332;28;89496;-67
2022/11/03 05:12:16;;;;;;;5.03;4.53;;;22.10;99.90;;;;;;6223872;28;87005;-66
2022/11/03 05:15:31;;;;;;;5.10;4.60;;;22.10;99.90;;;;;;6210761;28;89211;-66
2022/11/03 05:18:37;;;;;;;5.10;4.55;;;22.10;99.90;;;;;;6217637;28;88329;-67
2022/11/03 05:21:39;;;;;;;4.35;3.95;;;22.10;99.90;;;;;;6222240;28;89215;-67
2022/11/03 05:24:42;;;;;;;4.68;4.20;;;22.10;99.90;;;;;;6227668;28;89321;-67
2022/11/03 05:27:44;;;;;;;5.18;4.50;;;22.10;99.90;;;;;;6219628;28;90248;-67
2022/11/03 05:30:47;;;;;;;4.63;4.22;;;22.10;99.90;;;;;;6207052;28;89522;-66
2022/11/03 05:33:53;;;;;;;4.60;4.20;;;22.10;99.90;;;;;;6219060;28;89680;-67
2022/11/03 05:36:55;;;;;;;5.03;4.20;;;22.10;99.90;;;;;;6225399;28;89100;-66
2022/11/03 05:39:59;;;;;;;4.55;4.15;;;22.10;99.90;;;;;;6212580;28;89376;-67
2022/11/03 05:43:02;;;;;;;4.45;4.00;;;22.10;99.90;;;;;;6229099;28;89056;-67
2022/11/03 05:46:04;;;;;;;4.80;3.85;;;22.20;99.90;;;;;;6219582;28;88988;-67
2022/11/03 05:49:07;;;;;;;4.40;4.00;;;22.20;99.90;;;;;;6206780;28;88947;-66
2022/11/03 05:52:19;;;;;;;4.32;3.92;;;22.20;99.90;;;;;;6223792;28;89052;-66
2022/11/03 05:55:26;;;;;;;4.35;3.95;;;22.20;99.90;;;;;;6230347;28;89271;-67
2022/11/03 05:58:32;;;;;;;4.10;3.70;;;22.20;99.90;;;;;;6226174;28;90094;-67
2022/11/03 06:01:36;;;;;;;4.40;4.00;;;22.20;99.90;;;;;;6214031;28;89189;-66
2022/11/03 06:04:40;;;;;;;4.75;3.92;;;22.20;99.90;;;;;;6231051;28;88354;-67
2022/11/03 06:07:42;;;;;;;4.70;4.05;;;22.20;99.90;;;;;;6220044;28;89458;-66
2022/11/03 06:10:48;;;;;;;4.43;3.88;;;22.20;99.90;;;;;;6227140;28;88383;-67
2022/11/03 06:13:50;;;;;;;4.03;3.63;;;22.20;99.90;;;;;;6209276;28;89239;-66
2022/11/03 06:16:54;;;;;;;5.38;4.00;;;22.30;99.90;;;;;;6224503;28;89194;-66
2022/11/03 06:19:59;;;;;;;5.07;4.10;;;22.20;99.90;;;;;;6230759;28;88558;-67
2022/11/03 06:23:01;;;;;;;4.15;3.75;;;22.20;99.90;;;;;;6229160;28;89409;-67
2022/11/03 06:26:08;;;;;;;4.38;3.70;;;22.20;99.90;;;;;;6229390;28;89147;-66
2022/11/03 06:29:14;;;;;;;4.80;3.80;;;22.20;99.90;;;;;;6219490;28;90215;-66
2022/11/03 06:32:16;;;;;;;4.15;3.75;;;22.20;99.90;;;;;;6221917;28;89168;-67
2022/11/03 06:35:20;;;;;;;3.80;3.50;;;22.20;99.90;;;;;;6234124;28;89082;-66
2022/11/03 06:38:25;;;;;;;4.20;3.80;;;22.20;99.90;;;;;;6221314;28;89172;-66
2022/11/03 06:41:31;;;;;;;4.53;3.95;;;22.20;99.90;;;;;;6233536;28;89116;-67
2022/11/03 06:44:33;;;;;;;5.07;3.50;;;22.30;99.90;;;;;;6233109;28;89103;-66
2022/11/03 06:47:35;;;;;;;4.20;3.80;;;22.20;99.90;;;;;;6232695;28;90107;-67
2022/11/03 06:50:38;;;;;;;3.80;3.40;;;22.30;99.90;;;;;;6219914;28;88633;-66
2022/11/03 06:53:40;;;;;;;3.85;3.40;;;22.30;99.90;;;;;;6215777;28;89477;-67
2022/11/03 06:56:42;;;;;;;4.00;3.60;;;22.20;99.90;;;;;;6209352;28;88462;-67
2022/11/03 06:59:45;;;;;;;4.00;3.50;;;22.30;99.90;;;;;;6217969;28;90163;-67
2022/11/03 07:03:03;;;;;;;3.80;3.40;;;22.30;99.90;;;;;;6229352;28;89226;-66
2022/11/03 07:06:20;;;;;;;3.72;3.42;;;22.30;99.90;;;;;;6220847;28;89268;-67
2022/11/03 07:09:25;;;;;;;3.55;3.25;;;22.30;99.90;;;;;;6232146;28;89097;-67
2022/11/03 07:12:27;;;;;;;3.40;3.10;;;22.30;99.90;;;;;;6224417;28;89011;-67
2022/11/03 07:15:32;;;;;;;3.75;3.33;;;22.30;99.90;;;;;;6214824;28;89490;-66
2022/11/03 07:18:39;;;;;;;3.60;3.30;;;22.40;99.90;;;;;;6233379;28;89273;-66
2022/11/03 07:21:46;;;;;;;3.65;3.30;;;22.40;99.90;;;;;;6233560;28;88739;-67
2022/11/03 07:24:50;;;;;;;4.07;3.50;;;22.30;99.90;;;;;;6228990;28;89093;-66
2022/11/03 07:27:56;;;;;;;3.40;3.10;;;22.30;99.90;;;;;;6210705;28;89247;-67
2022/11/03 07:31:00;;;;;;;4.28;3.40;;;22.40;99.90;;;;;;6230825;28;89915;-67
2022/11/03 07:34:02;;;;;;;4.35;3.65;;;22.40;99.90;;;;;;6221414;28;89208;-67
2022/11/03 07:37:09;;;;;;;3.70;3.30;;;22.40;99.90;;;;;;6221546;28;88004;-66
2022/11/03 07:40:15;;;;;;;3.58;3.20;;;22.40;99.90;;;;;;6231446;28;89101;-67
2022/11/03 07:43:22;;;;;;;4.68;3.72;;;22.50;99.90;;;;;;6231333;28;89688;-67
2022/11/03 07:46:25;;;;;;;3.47;3.17;;;22.50;99.90;;;;;;6219762;28;88957;-67
2022/11/03 07:49:28;;;;;;;3.60;3.28;;;22.50;99.90;;;;;;6231465;28;89363;-67
2022/11/03 07:52:32;;;;;;;3.38;3.08;;;22.50;99.90;;;;;;6225126;28;88697;-66
2022/11/03 07:55:34;;;;;;;3.60;3.00;;;22.50;99.90;;;;;;6227540;28;89256;-66
2022/11/03 07:58:39;;;;;;;3.88;3.28;;;22.50;99.90;;;;;;6226970;28;89123;-67
2022/11/03 08:01:43;;;;;;;3.63;3.00;;;22.50;99.90;;;;;;6217588;28;90089;-66
2022/11/03 08:04:45;;;;;;;3.80;3.28;;;22.50;99.90;;;;;;6232448;28;89508;-67
2022/11/03 08:07:48;;;;;;;3.67;3.05;;;22.50;99.90;;;;;;6218633;28;89220;-67
2022/11/03 08:10:50;;;;;;;3.05;2.75;;;22.50;99.90;;;;;;6217469;28;89381;-66
2022/11/03 08:13:52;;;;;;;3.72;3.30;;;22.60;99.90;;;;;;6218045;28;89778;-67
2022/11/03 08:16:54;;;;;;;3.40;3.10;;;22.60;99.90;;;;;;6232005;28;89160;-66
2022/11/03 08:19:57;;;;;;;4.13;3.10;;;22.60;99.90;;;;;;6215661;28;89055;-67
2022/11/03 08:23:00;;;;;;;4.68;3.67;;;22.60;99.90;;;;;;6223226;28;88355;-67
2022/11/03 08:26:02;;;;;;;3.95;3.17;;;22.60;99.90;;;;;;6221608;28;89228;-67
2022/11/03 08:29:04;;;;;;;3.08;2.78;;;22.60;99.90;;;;;;6233064;28;88951;-67
2022/11/03 08:32:06;;;;;;;3.47;2.90;;;22.60;99.90;;;;;;6220136;28;90311;-67
2022/11/03 08:35:09;;;;;;;3.33;3.00;;;22.60;99.90;;;;;;6229190;28;89075;-67
2022/11/03 08:38:12;;;;;;;3.05;2.75;;;22.60;99.90;;;;;;6230160;28;89182;-66
2022/11/03 08:41:14;;;;;;;3.10;2.80;;;22.60;99.90;;;;;;6231341;28;89097;-67
2022/11/03 08:44:16;;;;;;;3.22;2.92;;;22.60;99.90;;;;;;6230225;28;88322;-67
2022/11/03 08:47:18;;;;;;;3.42;2.72;;;22.60;99.90;;;;;;6231037;28;89136;-67
2022/11/03 08:50:20;;;;;;;3.50;2.95;;;22.60;99.90;;;;;;6212435;28;89349;-67
2022/11/03 08:53:25;;;;;;;4.43;3.20;;;22.60;99.90;;;;;;6209485;28;89047;-67
2022/11/03 08:56:27;;;;;;;4.45;2.95;;;22.60;99.90;;;;;;6230390;28;89303;-67
2022/11/03 08:59:29;;;;;;;3.38;2.90;;;22.60;99.90;;;;;;6228109;28;88191;-67
2022/11/03 09:02:31;;;;;;;2.92;2.58;;;22.60;99.90;;;;;;6224495;28;89924;-66
2022/11/03 09:05:33;;;;;;;3.47;3.10;;;22.60;99.90;;;;;;6219793;28;89880;-67
2022/11/03 09:08:37;;;;;;;3.20;2.90;;;22.60;99.90;;;;;;6218080;28;88134;-66
2022/11/03 09:11:39;;;;;;;3.20;2.65;;;22.70;99.90;;;;;;6211820;28;89083;-66
2022/11/03 09:14:41;;;;;;;3.60;2.80;;;22.70;99.90;;;;;;6218259;28;89243;-66
2022/11/03 09:17:43;;;;;;;3.10;2.80;;;22.70;99.90;;;;;;6231733;28;89353;-66
2022/11/03 09:20:45;;;;;;;3.72;2.92;;;22.70;99.90;;;;;;6220279;28;88639;-67
2022/11/03 09:23:49;;;;;;;2.83;2.63;;;22.70;99.90;;;;;;6220425;28;87230;-66
2022/11/03 09:26:51;;;;;;;3.17;2.70;;;22.70;99.90;;;;;;6206228;28;89638;-66
2022/11/03 09:29:53;;;;;;;3.00;2.70;;;22.70;99.90;;;;;;6215117;28;88491;-66
2022/11/03 09:32:55;;;;;;;3.28;2.90;;;22.60;99.90;;;;;;6209707;28;90114;-66
2022/11/03 09:35:57;;;;;;;3.05;2.75;;;22.60;99.90;;;;;;6219710;28;89431;-66
2022/11/03 09:39:00;;;;;;;2.97;2.67;;;22.60;99.90;;;;;;6220266;28;88330;-66
2022/11/03 09:42:03;;;;;;;3.50;2.85;;;22.60;99.90;;;;;;6220293;28;89217;-66
2022/11/03 09:45:08;;;;;;;4.63;3.10;;;22.70;99.90;;;;;;6215373;28;89101;-66
2022/11/03 09:48:11;;;;;;;3.20;2.60;;;22.60;99.90;;;;;;6218706;28;89313;-66
2022/11/03 09:51:19;;;;;;;3.45;2.78;;;22.60;99.90;;;;;;6219901;28;88387;-66
2022/11/03 09:54:23;;;;;;;2.80;2.50;;;22.60;99.90;;;;;;6228653;28;88347;-66
2022/11/03 09:57:27;;;;;;;2.88;2.58;;;22.60;99.90;;;;;;6230836;28;89350;-66
2022/11/03 10:00:29;;;;;;;2.80;2.50;;;22.70;99.90;;;;;;6230541;28;87728;-66
2022/11/03 10:03:31;;;;;;;4.43;3.10;;;22.70;99.90;;;;;;6230538;28;90248;-66
2022/11/03 10:06:33;;;;;;;3.13;2.72;;;22.70;99.90;;;;;;6221854;28;89096;-66
2022/11/03 10:09:40;;;;;;;3.15;2.60;;;22.60;99.90;;;;;;6235616;28;89176;-66
2022/11/03 10:12:43;;;;;;;3.35;2.80;;;22.70;99.90;;;;;;6209218;28;89378;-67
2022/11/03 10:15:45;;;;;;;3.50;2.75;;;22.70;99.90;;;;;;6232492;28;88186;-66
2022/11/03 10:18:47;;;;;;;2.90;2.60;;;22.70;99.90;;;;;;6220788;28;89299;-66
2022/11/03 10:21:50;;;;;;;2.85;2.50;;;22.70;99.90;;;;;;6227209;28;89233;-67
2022/11/03 10:25:26;;;;;;;2.60;2.40;;;22.70;99.90;;;;;;6215733;28;88410;-66
2022/11/03 10:28:29;;;;;;;3.00;2.50;;;22.70;99.90;;;;;;6221811;28;88037;-66
2022/11/03 10:31:35;;;;;;;2.90;2.58;;;22.70;99.90;;;;;;6221031;28;89315;-66
2022/11/03 10:34:40;;;;;;;3.13;2.83;;;22.70;99.90;;;;;;6234010;28;90084;-67
2022/11/03 10:37:42;;;;;;;3.20;2.70;;;22.80;99.90;;;;;;6220490;28;89462;-66
2022/11/03 10:40:46;;;;;;;2.42;2.22;;;22.70;99.90;;;;;;6216178;28;89329;-67
2022/11/03 10:44:01;;;;;;;3.03;2.50;;;22.70;99.90;;;;;;6228522;28;89288;-67
2022/11/03 10:47:05;;;;;;;2.85;2.55;;;22.80;99.90;;;;;;6233120;28;89454;-66
2022/11/03 10:50:22;;;;;;;3.22;2.80;;;22.70;99.90;;;;;;6230641;28;89169;-66
2022/11/03 10:53:24;;;;;;;3.08;2.78;;;22.70;99.90;;;;;;6212451;28;89561;-67
2022/11/03 10:56:27;;;;;;;3.00;2.50;;;22.80;99.90;;;;;;6234357;28;88820;-67
2022/11/03 10:59:32;;;;;;;2.40;2.20;;;22.80;99.90;;;;;;6219503;28;89216;-67
2022/11/03 11:02:39;;;;;;;2.83;2.25;;;22.80;99.90;;;;;;6216333;28;88805;-67
2022/11/03 11:05:46;;;;;;;2.58;2.38;;;22.80;99.90;;;;;;6232926;28;90024;-67
2022/11/03 11:08:49;;;;;;;2.63;2.40;;;22.80;99.90;;;;;;6228562;28;89284;-66
2022/11/03 11:12:04;;;;;;;2.70;2.40;;;22.80;99.90;;;;;;6221947;28;88925;-66
2022/11/03 11:15:36;;;;;;;2.42;2.22;;;22.80;99.90;;;;;;6220906;28;89298;-66
2022/11/03 11:19:11;;;;;;;2.55;2.35;;;22.80;99.90;;;;;;6222252;28;89391;-66
2022/11/03 11:22:14;;;;;;;2.78;2.30;;;22.80;99.90;;;;;;6220531;28;89045;-67
2022/11/03 11:25:18;;;;;;;2.63;2.38;;;22.80;99.90;;;;;;6232191;28;88106;-67
2022/11/03 11:28:21;;;;;;;2.53;2.30;;;22.80;99.90;;;;;;6233151;28;87241;-66
2022/11/03 11:31:31;;;;;;;2.38;2.10;;;22.80;99.90;;;;;;6219966;28;89233;-67
2022/11/03 11:34:40;;;;;;;2.88;2.58;;;22.80;99.90;;;;;;6226903;28;89258;-66
2022/11/03 11:37:43;;;;;;;2.90;2.38;;;22.80;99.90;;;;;;6208604;28;90330;-66
2022/11/03 11:40:51;;;;;;;2.30;2.10;;;22.80;99.90;;;;;;6224318;28;88253;-66
2022/11/03 11:44:14;;;;;;;2.97;2.60;;;22.80;99.90;;;;;;6228082;28;89492;-66
2022/11/03 11:47:48;;;;;;;2.83;2.63;;;22.80;99.90;;;;;;6220142;28;89296;-66
2022/11/03 11:50:50;;;;;;;2.80;2.42;;;22.80;99.90;;;;;;6228363;28;88562;-66
2022/11/03 11:53:52;;;;;;;2.70;2.20;;;22.80;99.90;;;;;;6231721;28;89252;-67
2022/11/03 11:56:54;;;;;;;3.78;2.70;;;22.80;99.90;;;;;;6218075;28;89337;-66
2022/11/03 11:59:58;;;;;;;3.95;2.70;;;22.80;99.90;;;;;;6219603;28;88345;-67
2022/11/03 12:03:01;;;;;;;2.78;2.55;;;22.80;99.90;;;;;;6229830;28;89263;-67
2022/11/03 12:06:03;;;;;;;2.72;2.53;;;22.80;99.90;;;;;;6230727;28;89866;-67
2022/11/03 12:09:07;;;;;;;2.50;2.30;;;22.80;99.90;;;;;;6229969;28;90114;-67
2022/11/03 12:12:09;;;;;;;2.50;2.20;;;22.80;99.90;;;;;;6219888;28;89224;-67
2022/11/03 12:15:50;;;;;;;2.50;2.15;;;22.90;99.90;;;;;;6231982;28;89309;-66
2022/11/03 12:18:53;;;;;;;2.67;2.45;;;22.80;99.90;;;;;;6211458;28;89125;-67
2022/11/03 12:21:55;;;;;;;2.65;2.45;;;22.90;99.90;;;;;;6217169;28;89155;-66
2022/11/03 12:24:58;;;;;;;2.40;2.20;;;22.80;99.90;;;;;;6229946;28;89508;-67
2022/11/03 12:28:00;;;;;;;2.75;2.10;;;22.80;99.90;;;;;;6225257;28;89577;-66
2022/11/03 12:31:04;;;;;;;2.50;2.30;;;22.80;99.90;;;;;;6208524;28;88468;-67
2022/11/03 12:34:06;;;;;;;2.88;2.38;;;22.80;99.90;;;;;;6209658;28;89718;-67
2022/11/03 12:37:08;;;;;;;2.78;2.53;;;22.80;99.90;;;;;;6218985;28;89153;-67
2022/11/03 12:40:12;;;;;;;2.72;2.33;;;22.80;99.90;;;;;;6230292;28;90214;-67
2022/11/03 12:43:14;;;;;;;4.03;2.83;;;22.80;99.90;;;;;;6221236;28;89427;-67
2022/11/03 12:46:18;;;;;;;2.72;2.42;;;22.90;99.90;;;;;;6206598;28;89130;-67
2022/11/03 12:49:20;;;;;;;2.50;2.30;;;22.80;99.90;;;;;;6219687;28;89193;-67
2022/11/03 12:52:22;;;;;;;2.97;2.42;;;22.80;99.90;;;;;;6213281;28;89573;-67
2022/11/03 12:55:24;;;;;;;2.63;2.30;;;22.90;99.90;;;;;;6218510;28;89429;-66
2022/11/03 12:58:26;;;;;;;2.53;2.33;;;22.90;99.90;;;;;;6231380;28;89479;-67
2022/11/03 13:01:30;;;;;;;2.85;2.30;;;22.80;99.90;;;;;;6231569;28;88404;-66
2022/11/03 13:04:32;;;;;;;2.53;2.33;;;22.80;99.90;;;;;;6231919;28;89046;-66
2022/11/03 13:07:34;;;;;;;2.20;2.00;;;22.80;99.90;;;;;;6218735;28;89697;-67
2022/11/03 13:10:36;;;;;;;3.15;2.40;;;22.80;99.90;;;;;;6217896;28;90233;-67
2022/11/03 13:13:38;;;;;;;2.65;2.45;;;22.80;99.90;;;;;;6228567;28;88419;-67
2022/11/03 13:16:41;;;;;;;2.70;2.28;;;22.90;99.90;;;;;;6222999;28;89225;-66
2022/11/03 13:19:43;;;;;;;2.40;2.20;;;22.90;99.90;;;;;;6219577;28;89433;-67
2022/11/03 13:22:45;;;;;;;2.40;2.20;;;22.80;99.90;;;;;;6220101;28;89258;-66
2022/11/03 13:25:47;;;;;;;2.47;2.17;;;22.80;99.90;;;;;;6208952;28;89350;-66
2022/11/03 13:28:49;;;;;;;2.78;2.47;;;22.80;99.90;;;;;;6229058;28;89281;-66
2022/11/03 13:31:53;;;;;;;2.25;2.05;;;22.90;99.90;;;;;;6219911;28;88520;-67
2022/11/03 13:34:55;;;;;;;2.33;2.13;;;22.90;99.90;;;;;;6205825;28;89124;-66
2022/11/03 13:37:57;;;;;;;2.83;2.30;;;22.90;99.90;;;;;;6215170;28;89177;-67
2022/11/03 13:40:59;;;;;;;3.25;2.28;;;22.90;99.90;;;;;;6215038;28;90227;-66
2022/11/03 13:44:01;;;;;;;2.50;2.20;;;22.80;99.90;;;;;;6224774;28;89230;-66
2022/11/03 13:47:04;;;;;;;2.53;2.28;;;22.90;99.90;;;;;;6205296;28;89637;-66
2022/11/03 13:50:07;;;;;;;2.95;2.17;;;22.90;99.90;;;;;;6219983;28;89334;-66
2022/11/03 13:53:09;;;;;;;2.20;2.00;;;22.90;99.90;;;;;;6231190;28;89392;-66
2022/11/03 13:56:11;;;;;;;2.30;2.10;;;22.90;99.90;;;;;;6217724;28;89745;-66
2022/11/03 13:59:13;;;;;;;2.42;2.10;;;22.80;99.90;;;;;;6228323;28;89157;-67
2022/11/03 14:02:16;;;;;;;2.15;1.95;;;22.90;99.90;;;;;;6216587;28;87404;-66
2022/11/03 14:05:18;;;;;;;2.25;2.03;;;22.90;99.90;;;;;;6229732;28;89348;-67
2022/11/03 14:08:20;;;;;;;2.65;2.40;;;22.90;99.90;;;;;;6214754;28;89217;-67
2022/11/03 14:14:42;;;;;;;2.80;2.33;;;22.90;99.90;;;;;;6219410;28;87602;-67
2022/11/03 14:17:45;;;;;;;2.50;2.22;;;22.90;99.90;;;;;;6219222;28;88215;-67
2022/11/03 14:20:47;;;;;;;2.30;2.10;;;22.90;99.90;;;;;;6230050;28;89099;-67
2022/11/03 14:23:50;;;;;;;2.20;2.00;;;22.90;99.90;;;;;;6219249;28;89206;-66
2022/11/03 14:26:52;;;;;;;2.42;2.10;;;22.90;99.90;;;;;;6205568;28;89038;-66
2022/11/03 14:29:54;;;;;;;2.20;2.00;;;22.90;99.90;;;;;;6224823;28;89122;-66
2022/11/03 14:32:57;;;;;;;1.90;1.80;;;22.80;99.90;;;;;;6216214;28;88923;-67
2022/11/03 14:35:59;;;;;;;2.10;1.90;;;22.90;99.90;;;;;;6225886;28;89272;-66
2022/11/03 14:39:01;;;;;;;3.15;2.38;;;22.90;99.90;;;;;;6217311;28;89140;-67
2022/11/03 14:42:04;;;;;;;2.40;2.20;;;22.90;99.90;;;;;;6210594;28;90484;-67
2022/11/03 14:45:07;;;;;;;3.35;2.40;;;22.90;99.90;;;;;;6213257;28;89043;-66
2022/11/03 14:48:10;;;;;;;2.35;2.15;;;22.90;99.90;;;;;;6215201;28;89188;-66
2022/11/03 14:51:12;;;;;;;2.33;2.13;;;22.90;99.90;;;;;;6233195;28;89251;-67
2022/11/03 14:54:14;;;;;;;2.13;1.92;;;22.90;99.90;;;;;;6223475;28;89056;-67
2022/11/03 14:57:16;;;;;;;2.25;2.03;;;22.90;99.90;;;;;;6222277;28;89105;-67
2022/11/03 15:00:19;;;;;;;2.90;2.30;;;22.90;99.90;;;;;;6219304;28;89596;-66
2022/11/03 15:03:22;;;;;;;2.33;2.10;;;22.90;99.90;;;;;;6228551;28;88819;-66
2022/11/03 15:06:24;;;;;;;2.42;2.22;;;22.80;99.90;;;;;;6220793;28;88071;-67
2022/11/03 15:09:26;;;;;;;2.42;2.15;;;22.80;99.90;;;;;;6219515;28;89031;-67
2022/11/03 15:12:28;;;;;;;2.33;2.10;;;22.90;99.90;;;;;;6230450;28;89985;-67
2022/11/03 15:15:30;;;;;;;2.38;2.17;;;22.90;99.90;;;;;;6229736;28;89085;-66
2022/11/03 15:18:34;;;;;;;2.50;2.30;;;22.80;99.90;;;;;;6218854;28;89316;-67
2022/11/03 15:21:36;;;;;;;2.13;1.92;;;22.80;99.90;;;;;;6232033;28;88751;-67
2022/11/03 15:24:38;;;;;;;2.28;2.08;;;22.90;99.90;;;;;;6226839;28;89329;-67
2022/11/03 15:27:40;;;;;;;2.42;2.08;;;22.90;99.90;;;;;;6220363;28;88313;-67
2022/11/03 15:30:42;;;;;;;2.83;2.35;;;22.80;99.90;;;;;;6208378;28;88013;-67
2022/11/03 15:33:45;;;;;;;2.30;2.10;;;22.80;99.90;;;;;;6230840;28;88465;-67
2022/11/03 15:36:47;;;;;;;2.20;2.00;;;22.80;99.90;;;;;;6220911;28;89338;-67
2022/11/03 15:39:49;;;;;;;2.53;2.33;;;22.80;99.90;;;;;;6173907;28;1276541;-67
2022/11/03 15:42:51;;;;;;;3.38;2.35;;;22.80;99.90;;;;;;6231923;28;89994;-67
2022/11/03 15:45:53;;;;;;;2.58;2.13;;;22.80;99.90;;;;;;6228625;28;88285;-67
2022/11/03 15:48:57;;;;;;;2.40;2.20;;;22.80;99.90;;;;;;6219469;28;88023;-67
2022/11/03 15:51:59;;;;;;;2.30;2.10;;;22.80;99.90;;;;;;6215565;28;89155;-67
2022/11/03 15:55:01;;;;;;;3.45;2.60;;;22.80;99.90;;;;;;6220613;28;88935;-67
2022/11/03 15:58:03;;;;;;;2.30;2.10;;;22.80;99.90;;;;;;6218067;28;89222;-67
2022/11/03 16:01:06;;;;;;;2.53;2.30;;;22.80;99.90;;;;;;6232285;28;89280;-67
2022/11/03 16:04:09;;;;;;;2.42;2.20;;;22.90;99.90;;;;;;6232392;28;88538;-67
2022/11/03 16:07:11;;;;;;;2.30;2.10;;;22.80;99.90;;;;;;6213091;28;89372;-67
2022/11/03 16:10:13;;;;;;;2.45;2.25;;;22.80;99.90;;;;;;6212652;28;89338;-67
2022/11/03 16:13:15;;;;;;;3.30;2.42;;;22.80;99.90;;;;;;6229470;28;90271;-67
2022/11/03 16:16:18;;;;;;;2.53;2.30;;;22.80;99.90;;;;;;6231705;28;89320;-67
2022/11/03 16:19:21;;;;;;;3.13;2.20;;;22.80;99.90;;;;;;6232956;28;89129;-67